sensor_id;sensor_type;location;lat;lon;timestamp;temperature;humidity
49855;DHT22;35752;52.164;21.244;2022-11-14T00:00:09;9.20;99.90
49855;DHT22;35752;52.164;21.244;2022-11-14T00:02:36;9.20;99.90
49855;DHT22;35752;52.164;21.244;2022-11-14T00:05:02;9.20;99.90
49855;DHT22;35752;52.164;21.244;2022-11-14T00:07:31;9.20;99.90
49855;DHT22;35752;52.164;21.244;2022-11-14T00:09:57;9.20;99.90
49855;DHT22;35752;52.164;21.244;2022-11-14T00:12:23;9.20;99.90
49855;DHT22;35752;52.164;21.244;2022-11-14T00:14:49;9.20;99.90
49855;DHT22;35752;52.164;21.244;2022-11-14T00:17:16;9.20;99.90
49855;DHT22;35752;52.164;21.244;2022-11-14T00:19:42;9.20;99.90
49855;DHT22;35752;52.164;21.244;2022-11-14T00:22:08;9.20;99.90
49855;DHT22;35752;52.164;21.244;2022-11-14T00:24:33;9.20;99.90
49855;DHT22;35752;52.164;21.244;2022-11-14T00:26:59;9.20;99.90
49855;DHT22;35752;52.164;21.244;2022-11-14T00:29:24;9.20;99.90
49855;DHT22;35752;52.164;21.244;2022-11-14T00:31:50;9.20;99.90
49855;DHT22;35752;52.164;21.244;2022-11-14T00:34:16;9.20;99.90
49855;DHT22;35752;52.164;21.244;2022-11-14T00:36:41;9.20;99.90
49855;DHT22;35752;52.164;21.244;2022-11-14T00:39:11;9.20;99.90
49855;DHT22;35752;52.164;21.244;2022-11-14T00:41:37;9.20;99.90
49855;DHT22;35752;52.164;21.244;2022-11-14T00:44:03;9.10;99.90
49855;DHT22;35752;52.164;21.244;2022-11-14T00:46:28;9.20;99.90
49855;DHT22;35752;52.164;21.244;2022-11-14T00:48:54;9.20;99.90
49855;DHT22;35752;52.164;21.244;2022-11-14T00:51:20;9.20;99.90
49855;DHT22;35752;52.164;21.244;2022-11-14T00:53:45;9.10;99.90
49855;DHT22;35752;52.164;21.244;2022-11-14T00:56:11;9.20;99.90
49855;DHT22;35752;52.164;21.244;2022-11-14T00:58:36;9.20;99.90
49855;DHT22;35752;52.164;21.244;2022-11-14T01:01:02;9.20;99.90
49855;DHT22;35752;52.164;21.244;2022-11-14T01:03:28;9.20;99.90
49855;DHT22;35752;52.164;21.244;2022-11-14T01:05:54;9.20;99.90
49855;DHT22;35752;52.164;21.244;2022-11-14T01:08:19;9.20;99.90
49855;DHT22;35752;52.164;21.244;2022-11-14T01:10:49;9.20;99.90
49855;DHT22;35752;52.164;21.244;2022-11-14T01:13:16;9.20;99.90
49855;DHT22;35752;52.164;21.244;2022-11-14T01:15:45;9.20;99.90
49855;DHT22;35752;52.164;21.244;2022-11-14T01:18:13;9.20;99.90
49855;DHT22;35752;52.164;21.244;2022-11-14T01:20:41;9.20;99.90
49855;DHT22;35752;52.164;21.244;2022-11-14T01:23:08;9.20;99.90
49855;DHT22;35752;52.164;21.244;2022-11-14T01:25:38;9.20;99.90
49855;DHT22;35752;52.164;21.244;2022-11-14T01:28:08;9.20;99.90
49855;DHT22;35752;52.164;21.244;2022-11-14T01:30:35;9.20;99.90
49855;DHT22;35752;52.164;21.244;2022-11-14T01:33:01;9.20;99.90
49855;DHT22;35752;52.164;21.244;2022-11-14T01:35:27;9.10;99.90
49855;DHT22;35752;52.164;21.244;2022-11-14T01:37:52;9.20;99.90
49855;DHT22;35752;52.164;21.244;2022-11-14T01:40:18;9.20;99.90
49855;DHT22;35752;52.164;21.244;2022-11-14T01:53:53;9.10;99.90
49855;DHT22;35752;52.164;21.244;2022-11-14T01:56:32;9.10;99.90
49855;DHT22;35752;52.164;21.244;2022-11-14T01:59:02;9.10;99.90
49855;DHT22;35752;52.164;21.244;2022-11-14T02:01:30;9.10;99.90
49855;DHT22;35752;52.164;21.244;2022-11-14T02:03:59;9.10;99.90
49855;DHT22;35752;52.164;21.244;2022-11-14T02:06:28;9.00;99.90
49855;DHT22;35752;52.164;21.244;2022-11-14T02:08:55;9.00;99.90
49855;DHT22;35752;52.164;21.244;2022-11-14T02:11:22;9.00;99.90
49855;DHT22;35752;52.164;21.244;2022-11-14T02:13:47;9.00;99.90
49855;DHT22;35752;52.164;21.244;2022-11-14T02:16:14;9.00;99.90
49855;DHT22;35752;52.164;21.244;2022-11-14T02:18:40;9.10;99.90
49855;DHT22;35752;52.164;21.244;2022-11-14T02:21:06;9.10;99.90
49855;DHT22;35752;52.164;21.244;2022-11-14T02:23:31;9.10;99.90
49855;DHT22;35752;52.164;21.244;2022-11-14T02:25:58;9.10;99.90
49855;DHT22;35752;52.164;21.244;2022-11-14T02:28:24;9.10;99.90
49855;DHT22;35752;52.164;21.244;2022-11-14T02:30:50;9.10;99.90
49855;DHT22;35752;52.164;21.244;2022-11-14T02:33:16;9.00;99.90
49855;DHT22;35752;52.164;21.244;2022-11-14T02:35:41;9.00;99.90
49855;DHT22;35752;52.164;21.244;2022-11-14T02:38:07;9.00;99.90
49855;DHT22;35752;52.164;21.244;2022-11-14T02:40:33;8.90;99.90
49855;DHT22;35752;52.164;21.244;2022-11-14T02:42:59;8.90;99.90
49855;DHT22;35752;52.164;21.244;2022-11-14T02:45:25;8.90;99.90
49855;DHT22;35752;52.164;21.244;2022-11-14T02:47:50;8.90;99.90
49855;DHT22;35752;52.164;21.244;2022-11-14T02:50:16;8.90;99.90
49855;DHT22;35752;52.164;21.244;2022-11-14T02:52:42;8.90;99.90
49855;DHT22;35752;52.164;21.244;2022-11-14T02:55:08;8.80;99.90
49855;DHT22;35752;52.164;21.244;2022-11-14T02:57:34;8.90;99.90
49855;DHT22;35752;52.164;21.244;2022-11-14T03:00:00;8.90;99.90
49855;DHT22;35752;52.164;21.244;2022-11-14T03:02:25;8.90;99.90
49855;DHT22;35752;52.164;21.244;2022-11-14T03:04:51;8.90;99.90
49855;DHT22;35752;52.164;21.244;2022-11-14T03:07:17;8.90;99.90
49855;DHT22;35752;52.164;21.244;2022-11-14T03:09:43;8.90;99.90
49855;DHT22;35752;52.164;21.244;2022-11-14T03:12:09;9.00;99.90
49855;DHT22;35752;52.164;21.244;2022-11-14T03:14:34;9.00;99.90
49855;DHT22;35752;52.164;21.244;2022-11-14T03:17:00;9.00;99.90
49855;DHT22;35752;52.164;21.244;2022-11-14T03:19:26;8.90;99.90
49855;DHT22;35752;52.164;21.244;2022-11-14T03:21:51;8.90;99.90
49855;DHT22;35752;52.164;21.244;2022-11-14T03:24:17;9.00;99.90
49855;DHT22;35752;52.164;21.244;2022-11-14T03:26:43;9.00;99.90
49855;DHT22;35752;52.164;21.244;2022-11-14T03:29:08;9.00;99.90
49855;DHT22;35752;52.164;21.244;2022-11-14T03:31:34;8.90;99.90
49855;DHT22;35752;52.164;21.244;2022-11-14T03:34:00;9.00;99.90
49855;DHT22;35752;52.164;21.244;2022-11-14T03:36:25;8.90;99.90
49855;DHT22;35752;52.164;21.244;2022-11-14T03:38:51;8.90;99.90
49855;DHT22;35752;52.164;21.244;2022-11-14T03:41:17;8.90;99.90
49855;DHT22;35752;52.164;21.244;2022-11-14T03:43:42;8.90;99.90
49855;DHT22;35752;52.164;21.244;2022-11-14T03:46:08;8.90;99.90
49855;DHT22;35752;52.164;21.244;2022-11-14T03:48:33;8.90;99.90
49855;DHT22;35752;52.164;21.244;2022-11-14T03:50:59;8.90;99.90
49855;DHT22;35752;52.164;21.244;2022-11-14T03:53:25;8.90;99.90
49855;DHT22;35752;52.164;21.244;2022-11-14T03:55:51;8.90;99.90
49855;DHT22;35752;52.164;21.244;2022-11-14T03:58:16;8.90;99.90
49855;DHT22;35752;52.164;21.244;2022-11-14T04:00:42;8.90;99.90
49855;DHT22;35752;52.164;21.244;2022-11-14T04:03:08;8.90;99.90
49855;DHT22;35752;52.164;21.244;2022-11-14T04:05:34;8.90;99.90
49855;DHT22;35752;52.164;21.244;2022-11-14T04:07:59;8.90;99.90
49855;DHT22;35752;52.164;21.244;2022-11-14T04:10:25;8.90;99.90
49855;DHT22;35752;52.164;21.244;2022-11-14T04:12:52;8.90;99.90
49855;DHT22;35752;52.164;21.244;2022-11-14T04:15:19;8.90;99.90
49855;DHT22;35752;52.164;21.244;2022-11-14T04:17:45;8.80;99.90
49855;DHT22;35752;52.164;21.244;2022-11-14T04:20:12;8.80;99.90
49855;DHT22;35752;52.164;21.244;2022-11-14T04:22:39;8.80;99.90
49855;DHT22;35752;52.164;21.244;2022-11-14T04:25:05;8.80;99.90
49855;DHT22;35752;52.164;21.244;2022-11-14T04:27:31;8.80;99.90
49855;DHT22;35752;52.164;21.244;2022-11-14T04:29:57;8.80;99.90
49855;DHT22;35752;52.164;21.244;2022-11-14T04:32:23;8.80;99.90
49855;DHT22;35752;52.164;21.244;2022-11-14T04:34:48;8.80;99.90
49855;DHT22;35752;52.164;21.244;2022-11-14T04:37:14;8.80;99.90
49855;DHT22;35752;52.164;21.244;2022-11-14T04:39:40;8.80;99.90
49855;DHT22;35752;52.164;21.244;2022-11-14T04:42:05;8.80;99.90
49855;DHT22;35752;52.164;21.244;2022-11-14T04:44:31;8.80;99.90
49855;DHT22;35752;52.164;21.244;2022-11-14T04:46:57;8.80;99.90
49855;DHT22;35752;52.164;21.244;2022-11-14T04:49:22;8.80;99.90
49855;DHT22;35752;52.164;21.244;2022-11-14T04:51:48;8.80;99.90
49855;DHT22;35752;52.164;21.244;2022-11-14T04:54:14;8.80;99.90
49855;DHT22;35752;52.164;21.244;2022-11-14T04:56:40;8.80;99.90
49855;DHT22;35752;52.164;21.244;2022-11-14T04:59:05;8.80;99.90
49855;DHT22;35752;52.164;21.244;2022-11-14T05:01:31;8.80;99.90
49855;DHT22;35752;52.164;21.244;2022-11-14T05:03:57;8.80;99.90
49855;DHT22;35752;52.164;21.244;2022-11-14T05:06:22;8.90;99.90
49855;DHT22;35752;52.164;21.244;2022-11-14T05:08:48;8.80;99.90
49855;DHT22;35752;52.164;21.244;2022-11-14T05:11:15;8.80;99.90
49855;DHT22;35752;52.164;21.244;2022-11-14T05:13:41;8.80;99.90
49855;DHT22;35752;52.164;21.244;2022-11-14T05:16:07;8.80;99.90
49855;DHT22;35752;52.164;21.244;2022-11-14T05:18:33;8.80;99.90
49855;DHT22;35752;52.164;21.244;2022-11-14T05:20:59;8.80;99.90
49855;DHT22;35752;52.164;21.244;2022-11-14T05:23:25;8.80;99.90
49855;DHT22;35752;52.164;21.244;2022-11-14T05:26:02;8.80;99.90
49855;DHT22;35752;52.164;21.244;2022-11-14T05:28:28;8.80;99.90
49855;DHT22;35752;52.164;21.244;2022-11-14T05:31:05;8.80;99.90
49855;DHT22;35752;52.164;21.244;2022-11-14T05:33:31;8.80;99.90
49855;DHT22;35752;52.164;21.244;2022-11-14T05:36:04;8.80;99.90
49855;DHT22;35752;52.164;21.244;2022-11-14T05:38:30;8.70;99.90
49855;DHT22;35752;52.164;21.244;2022-11-14T05:40:56;8.80;99.90
49855;DHT22;35752;52.164;21.244;2022-11-14T05:43:21;8.80;99.90
49855;DHT22;35752;52.164;21.244;2022-11-14T05:45:47;8.70;99.90
49855;DHT22;35752;52.164;21.244;2022-11-14T05:48:13;8.70;99.90
49855;DHT22;35752;52.164;21.244;2022-11-14T05:50:38;8.70;99.90
49855;DHT22;35752;52.164;21.244;2022-11-14T05:53:04;8.70;99.90
49855;DHT22;35752;52.164;21.244;2022-11-14T05:55:30;8.60;99.90
49855;DHT22;35752;52.164;21.244;2022-11-14T05:57:58;8.70;99.90
49855;DHT22;35752;52.164;21.244;2022-11-14T06:00:25;8.60;99.90
49855;DHT22;35752;52.164;21.244;2022-11-14T06:02:55;8.60;99.90
49855;DHT22;35752;52.164;21.244;2022-11-14T06:05:21;8.60;99.90
49855;DHT22;35752;52.164;21.244;2022-11-14T06:07:47;8.60;99.90
49855;DHT22;35752;52.164;21.244;2022-11-14T06:10:18;8.70;99.90
49855;DHT22;35752;52.164;21.244;2022-11-14T06:12:44;8.60;99.90
49855;DHT22;35752;52.164;21.244;2022-11-14T06:15:10;8.60;99.90
49855;DHT22;35752;52.164;21.244;2022-11-14T06:17:35;8.60;99.90
49855;DHT22;35752;52.164;21.244;2022-11-14T06:20:01;8.70;99.90
49855;DHT22;35752;52.164;21.244;2022-11-14T06:22:26;8.70;99.90
49855;DHT22;35752;52.164;21.244;2022-11-14T06:24:52;8.70;99.90
49855;DHT22;35752;52.164;21.244;2022-11-14T06:27:18;8.70;99.90
49855;DHT22;35752;52.164;21.244;2022-11-14T06:29:43;8.70;99.90
49855;DHT22;35752;52.164;21.244;2022-11-14T06:32:09;8.70;99.90
49855;DHT22;35752;52.164;21.244;2022-11-14T06:34:34;8.70;99.90
49855;DHT22;35752;52.164;21.244;2022-11-14T06:37:00;8.70;99.90
49855;DHT22;35752;52.164;21.244;2022-11-14T06:39:26;8.70;99.90
49855;DHT22;35752;52.164;21.244;2022-11-14T06:41:51;8.60;99.90
49855;DHT22;35752;52.164;21.244;2022-11-14T06:44:17;8.60;99.90
49855;DHT22;35752;52.164;21.244;2022-11-14T06:46:42;8.60;99.90
49855;DHT22;35752;52.164;21.244;2022-11-14T06:49:08;8.60;99.90
49855;DHT22;35752;52.164;21.244;2022-11-14T06:51:34;8.60;99.90
49855;DHT22;35752;52.164;21.244;2022-11-14T06:53:59;8.60;99.90
49855;DHT22;35752;52.164;21.244;2022-11-14T06:56:25;8.60;99.90
49855;DHT22;35752;52.164;21.244;2022-11-14T06:58:51;8.60;99.90
49855;DHT22;35752;52.164;21.244;2022-11-14T07:03:44;8.60;99.90
49855;DHT22;35752;52.164;21.244;2022-11-14T07:06:13;8.60;99.90
49855;DHT22;35752;52.164;21.244;2022-11-14T07:08:39;8.60;99.90
49855;DHT22;35752;52.164;21.244;2022-11-14T07:11:13;8.60;99.90
49855;DHT22;35752;52.164;21.244;2022-11-14T07:13:53;8.60;99.90
49855;DHT22;35752;52.164;21.244;2022-11-14T07:16:26;8.60;99.90
49855;DHT22;35752;52.164;21.244;2022-11-14T07:18:54;8.60;99.90
49855;DHT22;35752;52.164;21.244;2022-11-14T07:21:20;8.60;99.90
49855;DHT22;35752;52.164;21.244;2022-11-14T07:23:46;8.60;99.90
49855;DHT22;35752;52.164;21.244;2022-11-14T07:26:12;8.60;99.90
49855;DHT22;35752;52.164;21.244;2022-11-14T07:28:40;8.70;99.90
49855;DHT22;35752;52.164;21.244;2022-11-14T07:31:08;8.70;99.90
49855;DHT22;35752;52.164;21.244;2022-11-14T07:33:35;8.70;99.90
49855;DHT22;35752;52.164;21.244;2022-11-14T07:36:01;8.60;99.90
49855;DHT22;35752;52.164;21.244;2022-11-14T07:38:26;8.70;99.90
49855;DHT22;35752;52.164;21.244;2022-11-14T07:40:56;8.70;99.90
49855;DHT22;35752;52.164;21.244;2022-11-14T07:43:22;8.60;99.90
49855;DHT22;35752;52.164;21.244;2022-11-14T07:45:47;8.70;99.90
49855;DHT22;35752;52.164;21.244;2022-11-14T07:48:13;8.60;99.90
49855;DHT22;35752;52.164;21.244;2022-11-14T07:50:39;8.60;99.90
49855;DHT22;35752;52.164;21.244;2022-11-14T07:53:05;8.70;99.90
49855;DHT22;35752;52.164;21.244;2022-11-14T07:55:30;8.60;99.90
49855;DHT22;35752;52.164;21.244;2022-11-14T07:57:58;8.60;99.90
49855;DHT22;35752;52.164;21.244;2022-11-14T08:00:24;8.50;99.90
49855;DHT22;35752;52.164;21.244;2022-11-14T08:02:50;8.50;99.90
49855;DHT22;35752;52.164;21.244;2022-11-14T08:05:16;8.50;99.90
49855;DHT22;35752;52.164;21.244;2022-11-14T08:07:42;8.50;99.90
49855;DHT22;35752;52.164;21.244;2022-11-14T08:10:08;8.60;99.90
49855;DHT22;35752;52.164;21.244;2022-11-14T08:12:36;8.60;99.90
49855;DHT22;35752;52.164;21.244;2022-11-14T08:15:05;8.70;99.90
49855;DHT22;35752;52.164;21.244;2022-11-14T08:17:30;8.70;99.90
49855;DHT22;35752;52.164;21.244;2022-11-14T08:19:57;8.70;99.90
49855;DHT22;35752;52.164;21.244;2022-11-14T08:22:22;8.70;99.90
49855;DHT22;35752;52.164;21.244;2022-11-14T08:24:48;8.70;99.90
49855;DHT22;35752;52.164;21.244;2022-11-14T08:27:14;8.70;99.90
49855;DHT22;35752;52.164;21.244;2022-11-14T08:29:40;8.70;99.90
49855;DHT22;35752;52.164;21.244;2022-11-14T08:32:05;8.80;99.90
49855;DHT22;35752;52.164;21.244;2022-11-14T08:34:31;8.80;99.90
49855;DHT22;35752;52.164;21.244;2022-11-14T08:36:57;8.80;99.90
49855;DHT22;35752;52.164;21.244;2022-11-14T08:39:23;8.90;99.90
49855;DHT22;35752;52.164;21.244;2022-11-14T08:41:48;8.80;99.90
49855;DHT22;35752;52.164;21.244;2022-11-14T08:44:14;8.80;99.90
49855;DHT22;35752;52.164;21.244;2022-11-14T08:46:40;8.80;99.90
49855;DHT22;35752;52.164;21.244;2022-11-14T08:49:06;8.80;99.90
49855;DHT22;35752;52.164;21.244;2022-11-14T08:51:31;8.80;99.90
49855;DHT22;35752;52.164;21.244;2022-11-14T08:53:57;8.80;99.90
49855;DHT22;35752;52.164;21.244;2022-11-14T08:56:22;8.80;99.90
49855;DHT22;35752;52.164;21.244;2022-11-14T08:58:48;8.80;99.90
49855;DHT22;35752;52.164;21.244;2022-11-14T09:01:14;8.80;99.90
49855;DHT22;35752;52.164;21.244;2022-11-14T09:03:40;8.80;99.90
49855;DHT22;35752;52.164;21.244;2022-11-14T09:06:05;8.80;99.90
49855;DHT22;35752;52.164;21.244;2022-11-14T09:08:31;8.80;99.90
49855;DHT22;35752;52.164;21.244;2022-11-14T09:11:01;8.80;99.90
49855;DHT22;35752;52.164;21.244;2022-11-14T09:13:27;8.70;99.90
49855;DHT22;35752;52.164;21.244;2022-11-14T09:15:53;8.70;99.90
49855;DHT22;35752;52.164;21.244;2022-11-14T09:18:18;8.60;99.90
49855;DHT22;35752;52.164;21.244;2022-11-14T09:20:44;8.60;99.90
49855;DHT22;35752;52.164;21.244;2022-11-14T09:23:10;8.70;99.90
49855;DHT22;35752;52.164;21.244;2022-11-14T09:25:36;8.70;99.90
49855;DHT22;35752;52.164;21.244;2022-11-14T09:28:04;8.70;99.90
49855;DHT22;35752;52.164;21.244;2022-11-14T09:30:31;8.70;99.90
49855;DHT22;35752;52.164;21.244;2022-11-14T09:33:00;8.80;99.90
49855;DHT22;35752;52.164;21.244;2022-11-14T09:35:27;8.80;99.90
49855;DHT22;35752;52.164;21.244;2022-11-14T09:38:00;8.90;99.90
49855;DHT22;35752;52.164;21.244;2022-11-14T09:40:27;8.80;99.90
49855;DHT22;35752;52.164;21.244;2022-11-14T09:43:10;8.80;99.90
49855;DHT22;35752;52.164;21.244;2022-11-14T09:45:41;8.80;99.90
49855;DHT22;35752;52.164;21.244;2022-11-14T09:48:13;8.90;99.90
49855;DHT22;35752;52.164;21.244;2022-11-14T09:50:46;8.90;99.90
49855;DHT22;35752;52.164;21.244;2022-11-14T09:53:36;8.90;99.90
49855;DHT22;35752;52.164;21.244;2022-11-14T09:56:04;9.00;99.90
49855;DHT22;35752;52.164;21.244;2022-11-14T09:58:30;9.10;99.90
49855;DHT22;35752;52.164;21.244;2022-11-14T10:01:02;9.20;99.90
49855;DHT22;35752;52.164;21.244;2022-11-14T10:03:47;9.20;99.90
49855;DHT22;35752;52.164;21.244;2022-11-14T10:06:31;9.30;99.90
49855;DHT22;35752;52.164;21.244;2022-11-14T10:09:25;9.20;99.90
49855;DHT22;35752;52.164;21.244;2022-11-14T10:12:02;9.20;99.90
49855;DHT22;35752;52.164;21.244;2022-11-14T10:18:00;9.30;99.90
49855;DHT22;35752;52.164;21.244;2022-11-14T10:20:41;9.30;99.90
49855;DHT22;35752;52.164;21.244;2022-11-14T10:23:20;9.30;99.90
49855;DHT22;35752;52.164;21.244;2022-11-14T10:34:22;9.30;99.90
49855;DHT22;35752;52.164;21.244;2022-11-14T10:37:07;9.30;99.90
49855;DHT22;35752;52.164;21.244;2022-11-14T10:39:37;9.40;99.90
49855;DHT22;35752;52.164;21.244;2022-11-14T10:42:24;9.40;99.90
49855;DHT22;35752;52.164;21.244;2022-11-14T10:45:22;9.50;99.90
49855;DHT22;35752;52.164;21.244;2022-11-14T10:48:18;9.50;99.90
49855;DHT22;35752;52.164;21.244;2022-11-14T10:50:51;9.50;99.90
49855;DHT22;35752;52.164;21.244;2022-11-14T10:55:50;9.40;99.90
49855;DHT22;35752;52.164;21.244;2022-11-14T10:58:17;9.40;99.90
49855;DHT22;35752;52.164;21.244;2022-11-14T11:00:43;9.30;99.90
49855;DHT22;35752;52.164;21.244;2022-11-14T11:03:09;9.30;99.90
49855;DHT22;35752;52.164;21.244;2022-11-14T11:05:45;9.10;99.90
49855;DHT22;35752;52.164;21.244;2022-11-14T11:08:11;9.20;99.90
49855;DHT22;35752;52.164;21.244;2022-11-14T11:10:58;9.10;99.90
49855;DHT22;35752;52.164;21.244;2022-11-14T11:13:52;9.00;99.90
49855;DHT22;35752;52.164;21.244;2022-11-14T11:16:21;9.00;99.90
49855;DHT22;35752;52.164;21.244;2022-11-14T11:18:46;9.00;99.90
49855;DHT22;35752;52.164;21.244;2022-11-14T11:21:14;9.00;99.90
49855;DHT22;35752;52.164;21.244;2022-11-14T11:24:07;9.00;99.90
49855;DHT22;35752;52.164;21.244;2022-11-14T11:26:33;9.00;99.90
49855;DHT22;35752;52.164;21.244;2022-11-14T11:31:53;8.90;99.90
49855;DHT22;35752;52.164;21.244;2022-11-14T11:34:27;8.90;99.90
49855;DHT22;35752;52.164;21.244;2022-11-14T11:37:22;8.90;99.90
49855;DHT22;35752;52.164;21.244;2022-11-14T11:39:51;8.90;99.90
49855;DHT22;35752;52.164;21.244;2022-11-14T11:44:57;8.90;99.90
49855;DHT22;35752;52.164;21.244;2022-11-14T11:47:24;8.80;99.90
49855;DHT22;35752;52.164;21.244;2022-11-14T11:49:52;8.90;99.90
49855;DHT22;35752;52.164;21.244;2022-11-14T11:57:38;8.80;99.90
49855;DHT22;35752;52.164;21.244;2022-11-14T12:00:17;8.70;99.90
49855;DHT22;35752;52.164;21.244;2022-11-14T12:02:47;8.60;99.90
49855;DHT22;35752;52.164;21.244;2022-11-14T12:05:17;8.60;99.90
49855;DHT22;35752;52.164;21.244;2022-11-14T12:08:25;8.60;99.90
49855;DHT22;35752;52.164;21.244;2022-11-14T12:10:51;8.60;99.90
49855;DHT22;35752;52.164;21.244;2022-11-14T12:26:56;8.60;99.90
49855;DHT22;35752;52.164;21.244;2022-11-14T12:32:03;8.60;99.90
49855;DHT22;35752;52.164;21.244;2022-11-14T12:34:36;8.60;99.90
49855;DHT22;35752;52.164;21.244;2022-11-14T12:40:00;8.60;99.90
49855;DHT22;35752;52.164;21.244;2022-11-14T12:42:27;8.60;99.90
49855;DHT22;35752;52.164;21.244;2022-11-14T12:44:53;8.60;99.90
49855;DHT22;35752;52.164;21.244;2022-11-14T12:47:21;8.60;99.90
49855;DHT22;35752;52.164;21.244;2022-11-14T12:52:41;8.60;99.90
49855;DHT22;35752;52.164;21.244;2022-11-14T12:58:07;8.60;99.90
49855;DHT22;35752;52.164;21.244;2022-11-14T13:03:19;8.60;99.90
49855;DHT22;35752;52.164;21.244;2022-11-14T13:05:58;8.60;99.90
49855;DHT22;35752;52.164;21.244;2022-11-14T13:11:43;8.50;99.90
49855;DHT22;35752;52.164;21.244;2022-11-14T13:14:29;8.60;99.90
49855;DHT22;35752;52.164;21.244;2022-11-14T13:20:34;8.50;99.90
49855;DHT22;35752;52.164;21.244;2022-11-14T13:33:58;8.40;99.90
49855;DHT22;35752;52.164;21.244;2022-11-14T13:39:54;8.40;99.90
49855;DHT22;35752;52.164;21.244;2022-11-14T13:50:33;8.30;99.90
49855;DHT22;35752;52.164;21.244;2022-11-14T13:53:02;8.30;99.90
49855;DHT22;35752;52.164;21.244;2022-11-14T13:56:03;8.30;99.90
49855;DHT22;35752;52.164;21.244;2022-11-14T14:20:18;8.30;99.90
49855;DHT22;35752;52.164;21.244;2022-11-14T14:22:58;8.20;99.90
49855;DHT22;35752;52.164;21.244;2022-11-14T14:28:32;8.20;99.90
49855;DHT22;35752;52.164;21.244;2022-11-14T14:33:43;8.20;99.90
49855;DHT22;35752;52.164;21.244;2022-11-14T14:36:21;8.10;99.90
49855;DHT22;35752;52.164;21.244;2022-11-14T14:38:48;8.20;99.90
49855;DHT22;35752;52.164;21.244;2022-11-14T14:41:16;8.20;99.90
49855;DHT22;35752;52.164;21.244;2022-11-14T14:43:49;8.20;99.90
49855;DHT22;35752;52.164;21.244;2022-11-14T14:46:24;8.20;99.90
49855;DHT22;35752;52.164;21.244;2022-11-14T14:48:50;8.20;99.90
49855;DHT22;35752;52.164;21.244;2022-11-14T14:51:31;8.10;99.90
49855;DHT22;35752;52.164;21.244;2022-11-14T14:53:58;8.10;99.90
49855;DHT22;35752;52.164;21.244;2022-11-14T14:56:24;8.10;99.90
49855;DHT22;35752;52.164;21.244;2022-11-14T14:58:50;8.10;99.90
49855;DHT22;35752;52.164;21.244;2022-11-14T15:01:21;8.10;99.90
49855;DHT22;35752;52.164;21.244;2022-11-14T15:03:56;8.10;99.90
49855;DHT22;35752;52.164;21.244;2022-11-14T15:06:27;8.00;99.90
49855;DHT22;35752;52.164;21.244;2022-11-14T15:09:01;8.00;99.90
49855;DHT22;35752;52.164;21.244;2022-11-14T15:11:27;8.00;99.90
49855;DHT22;35752;52.164;21.244;2022-11-14T15:13:55;8.10;99.90
49855;DHT22;35752;52.164;21.244;2022-11-14T15:16:23;8.10;99.90
49855;DHT22;35752;52.164;21.244;2022-11-14T15:18:50;8.00;99.90
49855;DHT22;35752;52.164;21.244;2022-11-14T15:23:45;7.90;99.90
49855;DHT22;35752;52.164;21.244;2022-11-14T15:26:22;8.00;99.90
49855;DHT22;35752;52.164;21.244;2022-11-14T15:28:47;8.00;99.90
49855;DHT22;35752;52.164;21.244;2022-11-14T15:31:19;8.00;99.90
49855;DHT22;35752;52.164;21.244;2022-11-14T15:34:00;8.00;99.90
49855;DHT22;35752;52.164;21.244;2022-11-14T15:36:26;8.00;99.90
49855;DHT22;35752;52.164;21.244;2022-11-14T15:39:04;8.00;99.90
49855;DHT22;35752;52.164;21.244;2022-11-14T15:41:31;8.00;99.90
49855;DHT22;35752;52.164;21.244;2022-11-14T15:43:58;7.90;99.90
49855;DHT22;35752;52.164;21.244;2022-11-14T15:48:58;8.00;99.90
49855;DHT22;35752;52.164;21.244;2022-11-14T15:56:58;8.00;99.90
49855;DHT22;35752;52.164;21.244;2022-11-14T15:59:26;7.90;99.90
49855;DHT22;35752;52.164;21.244;2022-11-14T16:01:56;8.00;99.90
49855;DHT22;35752;52.164;21.244;2022-11-14T16:04:27;8.00;99.90
49855;DHT22;35752;52.164;21.244;2022-11-14T16:06:54;7.90;99.90
49855;DHT22;35752;52.164;21.244;2022-11-14T16:09:20;7.90;99.90
49855;DHT22;35752;52.164;21.244;2022-11-14T16:11:46;7.90;99.90
49855;DHT22;35752;52.164;21.244;2022-11-14T16:14:12;7.90;99.90
49855;DHT22;35752;52.164;21.244;2022-11-14T16:16:38;7.90;99.90
49855;DHT22;35752;52.164;21.244;2022-11-14T16:19:05;7.90;99.90
49855;DHT22;35752;52.164;21.244;2022-11-14T16:21:31;7.90;99.90
49855;DHT22;35752;52.164;21.244;2022-11-14T16:23:57;7.90;99.90
49855;DHT22;35752;52.164;21.244;2022-11-14T16:26:23;7.90;99.90
49855;DHT22;35752;52.164;21.244;2022-11-14T16:28:51;7.90;99.90
49855;DHT22;35752;52.164;21.244;2022-11-14T16:31:17;7.90;99.90
49855;DHT22;35752;52.164;21.244;2022-11-14T16:33:42;7.80;99.90
49855;DHT22;35752;52.164;21.244;2022-11-14T16:36:11;7.80;99.90
49855;DHT22;35752;52.164;21.244;2022-11-14T16:38:37;7.80;99.90
49855;DHT22;35752;52.164;21.244;2022-11-14T16:41:07;7.80;99.90
49855;DHT22;35752;52.164;21.244;2022-11-14T16:43:33;7.80;99.90
49855;DHT22;35752;52.164;21.244;2022-11-14T16:46:06;7.80;99.90
49855;DHT22;35752;52.164;21.244;2022-11-14T16:48:32;7.80;99.90
49855;DHT22;35752;52.164;21.244;2022-11-14T16:51:02;7.90;99.90
49855;DHT22;35752;52.164;21.244;2022-11-14T16:53:28;7.80;99.90
49855;DHT22;35752;52.164;21.244;2022-11-14T16:55:55;7.80;99.90
49855;DHT22;35752;52.164;21.244;2022-11-14T16:58:21;7.70;99.90
49855;DHT22;35752;52.164;21.244;2022-11-14T17:00:47;7.80;99.90
49855;DHT22;35752;52.164;21.244;2022-11-14T17:03:13;7.70;99.90
49855;DHT22;35752;52.164;21.244;2022-11-14T17:05:43;7.70;99.90
49855;DHT22;35752;52.164;21.244;2022-11-14T17:08:09;7.70;99.90
49855;DHT22;35752;52.164;21.244;2022-11-14T17:10:42;7.70;99.90
49855;DHT22;35752;52.164;21.244;2022-11-14T17:13:09;7.70;99.90
49855;DHT22;35752;52.164;21.244;2022-11-14T17:15:35;7.70;99.90
49855;DHT22;35752;52.164;21.244;2022-11-14T17:18:01;7.70;99.90
49855;DHT22;35752;52.164;21.244;2022-11-14T17:20:27;7.70;99.90
49855;DHT22;35752;52.164;21.244;2022-11-14T17:22:53;7.70;99.90
49855;DHT22;35752;52.164;21.244;2022-11-14T17:25:19;7.70;99.90
49855;DHT22;35752;52.164;21.244;2022-11-14T17:27:45;7.80;99.90
49855;DHT22;35752;52.164;21.244;2022-11-14T17:30:14;7.80;99.90
49855;DHT22;35752;52.164;21.244;2022-11-14T17:32:40;7.80;99.90
49855;DHT22;35752;52.164;21.244;2022-11-14T17:35:07;7.70;99.90
49855;DHT22;35752;52.164;21.244;2022-11-14T17:37:33;7.70;99.90
49855;DHT22;35752;52.164;21.244;2022-11-14T17:39:59;7.70;99.90
49855;DHT22;35752;52.164;21.244;2022-11-14T17:42:24;7.70;99.90
49855;DHT22;35752;52.164;21.244;2022-11-14T17:44:50;7.70;99.90
49855;DHT22;35752;52.164;21.244;2022-11-14T17:47:16;7.60;99.90
49855;DHT22;35752;52.164;21.244;2022-11-14T17:49:42;7.60;99.90